sensor_id;sensor_type;location;lat;lon;timestamp;P1;durP1;ratioP1;P2;durP2;ratioP2
12441;SDS011;6285;48.804;9.220;2023-07-30T00:00:36;5.65;;;4.03;;
12441;SDS011;6285;48.804;9.220;2023-07-30T00:03:03;3.80;;;2.95;;
12441;SDS011;6285;48.804;9.220;2023-07-30T00:05:30;6.32;;;4.35;;
12441;SDS011;6285;48.804;9.220;2023-07-30T00:07:58;3.28;;;2.97;;
12441;SDS011;6285;48.804;9.220;2023-07-30T00:10:25;5.07;;;3.60;;
12441;SDS011;6285;48.804;9.220;2023-07-30T00:12:52;3.25;;;2.90;;
12441;SDS011;6285;48.804;9.220;2023-07-30T00:15:19;3.92;;;3.00;;
12441;SDS011;6285;48.804;9.220;2023-07-30T00:17:48;4.40;;;2.95;;
12441;SDS011;6285;48.804;9.220;2023-07-30T00:20:15;4.95;;;2.50;;
12441;SDS011;6285;48.804;9.220;2023-07-30T00:22:42;5.85;;;4.10;;
12441;SDS011;6285;48.804;9.220;2023-07-30T00:25:09;4.10;;;3.03;;
12441;SDS011;6285;48.804;9.220;2023-07-30T00:27:36;3.30;;;2.90;;
12441;SDS011;6285;48.804;9.220;2023-07-30T00:30:05;3.85;;;2.33;;
12441;SDS011;6285;48.804;9.220;2023-07-30T00:32:32;4.70;;;4.07;;
12441;SDS011;6285;48.804;9.220;2023-07-30T00:35:00;7.60;;;4.93;;
12441;SDS011;6285;48.804;9.220;2023-07-30T00:37:28;3.60;;;2.65;;
12441;SDS011;6285;48.804;9.220;2023-07-30T00:39:55;2.95;;;2.65;;
12441;SDS011;6285;48.804;9.220;2023-07-30T00:42:23;3.53;;;2.58;;
12441;SDS011;6285;48.804;9.220;2023-07-30T00:44:50;2.88;;;2.33;;
12441;SDS011;6285;48.804;9.220;2023-07-30T00:47:17;3.35;;;2.40;;
12441;SDS011;6285;48.804;9.220;2023-07-30T00:49:44;3.20;;;2.60;;
12441;SDS011;6285;48.804;9.220;2023-07-30T00:52:13;3.38;;;2.58;;
12441;SDS011;6285;48.804;9.220;2023-07-30T00:54:41;2.75;;;2.05;;
12441;SDS011;6285;48.804;9.220;2023-07-30T00:57:08;2.83;;;2.35;;
12441;SDS011;6285;48.804;9.220;2023-07-30T00:59:35;4.32;;;2.30;;
12441;SDS011;6285;48.804;9.220;2023-07-30T01:02:03;3.80;;;2.30;;
12441;SDS011;6285;48.804;9.220;2023-07-30T01:04:31;3.97;;;3.00;;
12441;SDS011;6285;48.804;9.220;2023-07-30T01:06:59;8.13;;;2.83;;
12441;SDS011;6285;48.804;9.220;2023-07-30T01:09:27;4.35;;;2.80;;
12441;SDS011;6285;48.804;9.220;2023-07-30T01:11:54;3.22;;;2.92;;
12441;SDS011;6285;48.804;9.220;2023-07-30T01:14:22;5.40;;;3.35;;
12441;SDS011;6285;48.804;9.220;2023-07-30T01:16:51;4.05;;;3.25;;
12441;SDS011;6285;48.804;9.220;2023-07-30T01:19:18;3.92;;;3.30;;
12441;SDS011;6285;48.804;9.220;2023-07-30T01:21:46;4.40;;;3.50;;
12441;SDS011;6285;48.804;9.220;2023-07-30T01:24:14;4.55;;;4.05;;
12441;SDS011;6285;48.804;9.220;2023-07-30T01:26:43;4.60;;;4.15;;
12441;SDS011;6285;48.804;9.220;2023-07-30T01:29:11;5.65;;;4.18;;
12441;SDS011;6285;48.804;9.220;2023-07-30T01:31:39;5.22;;;3.58;;
12441;SDS011;6285;48.804;9.220;2023-07-30T01:34:07;4.43;;;3.80;;
12441;SDS011;6285;48.804;9.220;2023-07-30T01:36:34;4.50;;;4.07;;
12441;SDS011;6285;48.804;9.220;2023-07-30T01:39:03;4.50;;;3.50;;
12441;SDS011;6285;48.804;9.220;2023-07-30T01:41:31;5.40;;;3.60;;
12441;SDS011;6285;48.804;9.220;2023-07-30T01:43:58;4.30;;;3.70;;
12441;SDS011;6285;48.804;9.220;2023-07-30T01:46:25;4.60;;;3.67;;
12441;SDS011;6285;48.804;9.220;2023-07-30T01:48:53;4.28;;;3.70;;
12441;SDS011;6285;48.804;9.220;2023-07-30T01:51:20;5.53;;;3.90;;
12441;SDS011;6285;48.804;9.220;2023-07-30T01:53:47;5.95;;;3.92;;
12441;SDS011;6285;48.804;9.220;2023-07-30T01:56:15;5.30;;;3.90;;
12441;SDS011;6285;48.804;9.220;2023-07-30T01:58:42;4.38;;;3.65;;
12441;SDS011;6285;48.804;9.220;2023-07-30T02:01:10;5.57;;;3.75;;
12441;SDS011;6285;48.804;9.220;2023-07-30T02:03:37;4.30;;;3.78;;
12441;SDS011;6285;48.804;9.220;2023-07-30T02:06:04;5.72;;;3.97;;
12441;SDS011;6285;48.804;9.220;2023-07-30T02:08:31;5.03;;;3.80;;
12441;SDS011;6285;48.804;9.220;2023-07-30T02:10:59;3.92;;;3.53;;
12441;SDS011;6285;48.804;9.220;2023-07-30T02:13:27;4.90;;;3.97;;
12441;SDS011;6285;48.804;9.220;2023-07-30T02:15:54;5.22;;;4.20;;
12441;SDS011;6285;48.804;9.220;2023-07-30T02:18:21;4.30;;;3.90;;
12441;SDS011;6285;48.804;9.220;2023-07-30T02:20:48;5.53;;;3.83;;
12441;SDS011;6285;48.804;9.220;2023-07-30T02:23:15;5.28;;;3.72;;
12441;SDS011;6285;48.804;9.220;2023-07-30T02:25:43;5.32;;;4.35;;
12441;SDS011;6285;48.804;9.220;2023-07-30T02:28:10;5.07;;;4.57;;
12441;SDS011;6285;48.804;9.220;2023-07-30T02:30:38;4.57;;;4.07;;
12441;SDS011;6285;48.804;9.220;2023-07-30T02:33:05;4.97;;;4.28;;
12441;SDS011;6285;48.804;9.220;2023-07-30T02:35:33;7.30;;;5.03;;
12441;SDS011;6285;48.804;9.220;2023-07-30T02:38:00;5.30;;;4.80;;
12441;SDS011;6285;48.804;9.220;2023-07-30T02:40:27;5.57;;;4.75;;
12441;SDS011;6285;48.804;9.220;2023-07-30T02:42:54;6.03;;;5.40;;
12441;SDS011;6285;48.804;9.220;2023-07-30T02:45:21;8.52;;;4.70;;
12441;SDS011;6285;48.804;9.220;2023-07-30T02:47:50;6.35;;;5.20;;
12441;SDS011;6285;48.804;9.220;2023-07-30T02:50:17;6.30;;;4.72;;
12441;SDS011;6285;48.804;9.220;2023-07-30T02:52:44;5.68;;;5.05;;
12441;SDS011;6285;48.804;9.220;2023-07-30T02:55:11;5.88;;;5.28;;
12441;SDS011;6285;48.804;9.220;2023-07-30T02:57:38;7.78;;;5.72;;
12441;SDS011;6285;48.804;9.220;2023-07-30T03:00:06;7.30;;;5.50;;
12441;SDS011;6285;48.804;9.220;2023-07-30T03:02:33;6.03;;;5.43;;
12441;SDS011;6285;48.804;9.220;2023-07-30T03:05:02;6.57;;;5.63;;
12441;SDS011;6285;48.804;9.220;2023-07-30T03:07:29;7.72;;;5.00;;
12441;SDS011;6285;48.804;9.220;2023-07-30T03:09:56;5.63;;;5.13;;
12441;SDS011;6285;48.804;9.220;2023-07-30T03:12:23;9.02;;;5.93;;
12441;SDS011;6285;48.804;9.220;2023-07-30T03:14:50;5.38;;;4.75;;
12441;SDS011;6285;48.804;9.220;2023-07-30T03:17:18;5.00;;;4.45;;
12441;SDS011;6285;48.804;9.220;2023-07-30T03:19:45;6.93;;;5.75;;
12441;SDS011;6285;48.804;9.220;2023-07-30T03:22:14;6.35;;;5.25;;
12441;SDS011;6285;48.804;9.220;2023-07-30T03:24:41;6.28;;;5.38;;
12441;SDS011;6285;48.804;9.220;2023-07-30T03:27:08;6.50;;;5.47;;
12441;SDS011;6285;48.804;9.220;2023-07-30T03:29:35;5.90;;;5.07;;
12441;SDS011;6285;48.804;9.220;2023-07-30T03:32:02;5.15;;;4.65;;
12441;SDS011;6285;48.804;9.220;2023-07-30T03:34:30;4.53;;;4.13;;
12441;SDS011;6285;48.804;9.220;2023-07-30T03:36:57;5.95;;;4.10;;
12441;SDS011;6285;48.804;9.220;2023-07-30T03:39:26;5.30;;;4.32;;
12441;SDS011;6285;48.804;9.220;2023-07-30T03:41:53;5.38;;;4.35;;
12441;SDS011;6285;48.804;9.220;2023-07-30T03:44:20;6.07;;;5.03;;
12441;SDS011;6285;48.804;9.220;2023-07-30T03:46:48;5.63;;;4.65;;
12441;SDS011;6285;48.804;9.220;2023-07-30T03:49:15;4.80;;;4.40;;
12441;SDS011;6285;48.804;9.220;2023-07-30T03:51:42;7.85;;;4.30;;
12441;SDS011;6285;48.804;9.220;2023-07-30T03:54:09;5.65;;;4.50;;
12441;SDS011;6285;48.804;9.220;2023-07-30T03:56:37;4.85;;;3.83;;
12441;SDS011;6285;48.804;9.220;2023-07-30T03:59:04;4.53;;;4.07;;
12441;SDS011;6285;48.804;9.220;2023-07-30T04:01:32;4.40;;;4.00;;
12441;SDS011;6285;48.804;9.220;2023-07-30T04:03:59;5.20;;;4.32;;
12441;SDS011;6285;48.804;9.220;2023-07-30T04:06:26;3.85;;;3.55;;
12441;SDS011;6285;48.804;9.220;2023-07-30T04:08:53;5.15;;;3.50;;
12441;SDS011;6285;48.804;9.220;2023-07-30T04:11:20;5.57;;;3.30;;
12441;SDS011;6285;48.804;9.220;2023-07-30T04:13:49;4.55;;;3.75;;
12441;SDS011;6285;48.804;9.220;2023-07-30T04:16:16;5.43;;;3.78;;
12441;SDS011;6285;48.804;9.220;2023-07-30T04:18:43;6.00;;;3.88;;
12441;SDS011;6285;48.804;9.220;2023-07-30T04:21:10;5.03;;;4.00;;
12441;SDS011;6285;48.804;9.220;2023-07-30T04:23:38;4.63;;;4.20;;
12441;SDS011;6285;48.804;9.220;2023-07-30T04:26:06;4.70;;;3.90;;
12441;SDS011;6285;48.804;9.220;2023-07-30T04:28:33;6.13;;;4.13;;
12441;SDS011;6285;48.804;9.220;2023-07-30T04:31:02;6.05;;;3.75;;
12441;SDS011;6285;48.804;9.220;2023-07-30T04:33:29;6.75;;;3.50;;
12441;SDS011;6285;48.804;9.220;2023-07-30T04:35:56;5.03;;;3.33;;
12441;SDS011;6285;48.804;9.220;2023-07-30T04:38:23;3.72;;;3.17;;
12441;SDS011;6285;48.804;9.220;2023-07-30T04:40:50;5.13;;;3.38;;
12441;SDS011;6285;48.804;9.220;2023-07-30T04:43:17;4.18;;;3.63;;
12441;SDS011;6285;48.804;9.220;2023-07-30T04:45:44;5.35;;;3.20;;
12441;SDS011;6285;48.804;9.220;2023-07-30T04:48:13;6.20;;;4.05;;
12441;SDS011;6285;48.804;9.220;2023-07-30T04:50:41;6.00;;;3.88;;
12441;SDS011;6285;48.804;9.220;2023-07-30T04:53:08;6.10;;;3.88;;
12441;SDS011;6285;48.804;9.220;2023-07-30T04:55:35;4.63;;;3.92;;
12441;SDS011;6285;48.804;9.220;2023-07-30T04:58:02;6.28;;;4.20;;
12441;SDS011;6285;48.804;9.220;2023-07-30T05:00:29;4.57;;;4.15;;
12441;SDS011;6285;48.804;9.220;2023-07-30T05:02:57;4.35;;;3.53;;
12441;SDS011;6285;48.804;9.220;2023-07-30T05:05:25;5.28;;;3.20;;
12441;SDS011;6285;48.804;9.220;2023-07-30T05:07:52;4.78;;;2.90;;
12441;SDS011;6285;48.804;9.220;2023-07-30T05:10:19;3.40;;;3.10;;
12441;SDS011;6285;48.804;9.220;2023-07-30T05:12:47;3.88;;;2.72;;
12441;SDS011;6285;48.804;9.220;2023-07-30T05:15:14;6.82;;;3.00;;
12441;SDS011;6285;48.804;9.220;2023-07-30T05:17:41;3.67;;;2.90;;
12441;SDS011;6285;48.804;9.220;2023-07-30T05:20:09;3.55;;;3.25;;
12441;SDS011;6285;48.804;9.220;2023-07-30T05:22:38;4.43;;;3.00;;
12441;SDS011;6285;48.804;9.220;2023-07-30T05:25:14;3.78;;;3.03;;
12441;SDS011;6285;48.804;9.220;2023-07-30T05:27:41;5.05;;;3.20;;
12441;SDS011;6285;48.804;9.220;2023-07-30T05:30:08;5.05;;;3.05;;
12441;SDS011;6285;48.804;9.220;2023-07-30T05:32:36;3.10;;;2.80;;
12441;SDS011;6285;48.804;9.220;2023-07-30T05:35:03;4.70;;;2.75;;
12441;SDS011;6285;48.804;9.220;2023-07-30T05:37:30;3.20;;;2.38;;
12441;SDS011;6285;48.804;9.220;2023-07-30T05:39:59;3.30;;;2.80;;
12441;SDS011;6285;48.804;9.220;2023-07-30T05:42:26;4.30;;;3.13;;
12441;SDS011;6285;48.804;9.220;2023-07-30T05:44:53;2.97;;;2.67;;
12441;SDS011;6285;48.804;9.220;2023-07-30T05:47:20;3.22;;;2.50;;
12441;SDS011;6285;48.804;9.220;2023-07-30T05:49:50;3.38;;;2.40;;
12441;SDS011;6285;48.804;9.220;2023-07-30T05:52:19;3.22;;;2.67;;
12441;SDS011;6285;48.804;9.220;2023-07-30T05:54:46;2.30;;;2.05;;
12441;SDS011;6285;48.804;9.220;2023-07-30T05:57:15;2.33;;;2.13;;
12441;SDS011;6285;48.804;9.220;2023-07-30T05:59:42;2.50;;;2.20;;
12441;SDS011;6285;48.804;9.220;2023-07-30T06:02:09;2.22;;;1.83;;
12441;SDS011;6285;48.804;9.220;2023-07-30T06:04:37;2.60;;;1.95;;
12441;SDS011;6285;48.804;9.220;2023-07-30T06:07:04;3.22;;;2.00;;
12441;SDS011;6285;48.804;9.220;2023-07-30T06:09:31;2.10;;;1.90;;
12441;SDS011;6285;48.804;9.220;2023-07-30T06:11:58;2.30;;;1.77;;
12441;SDS011;6285;48.804;9.220;2023-07-30T06:14:27;2.67;;;2.17;;
12441;SDS011;6285;48.804;9.220;2023-07-30T06:16:54;3.75;;;1.90;;
12441;SDS011;6285;48.804;9.220;2023-07-30T06:19:21;2.22;;;1.95;;
12441;SDS011;6285;48.804;9.220;2023-07-30T06:21:48;2.45;;;2.25;;
12441;SDS011;6285;48.804;9.220;2023-07-30T06:24:16;3.35;;;2.13;;
12441;SDS011;6285;48.804;9.220;2023-07-30T06:26:43;2.80;;;2.20;;
12441;SDS011;6285;48.804;9.220;2023-07-30T06:29:13;5.20;;;2.42;;
12441;SDS011;6285;48.804;9.220;2023-07-30T06:32:02;4.20;;;3.33;;
12441;SDS011;6285;48.804;9.220;2023-07-30T06:34:30;3.38;;;3.05;;
12441;SDS011;6285;48.804;9.220;2023-07-30T06:36:57;3.03;;;2.40;;
12441;SDS011;6285;48.804;9.220;2023-07-30T06:39:24;3.25;;;2.60;;
12441;SDS011;6285;48.804;9.220;2023-07-30T06:41:52;3.83;;;2.35;;
12441;SDS011;6285;48.804;9.220;2023-07-30T06:44:19;4.95;;;2.90;;
12441;SDS011;6285;48.804;9.220;2023-07-30T06:46:46;3.47;;;2.30;;
12441;SDS011;6285;48.804;9.220;2023-07-30T06:49:17;3.20;;;2.30;;
12441;SDS011;6285;48.804;9.220;2023-07-30T06:51:45;2.53;;;2.33;;
12441;SDS011;6285;48.804;9.220;2023-07-30T06:54:12;6.65;;;2.50;;
12441;SDS011;6285;48.804;9.220;2023-07-30T06:56:39;3.05;;;2.20;;
12441;SDS011;6285;48.804;9.220;2023-07-30T06:59:06;5.28;;;2.10;;
12441;SDS011;6285;48.804;9.220;2023-07-30T07:01:33;2.63;;;2.42;;
12441;SDS011;6285;48.804;9.220;2023-07-30T07:04:03;2.55;;;2.20;;
12441;SDS011;6285;48.804;9.220;2023-07-30T07:06:32;3.80;;;2.45;;
12441;SDS011;6285;48.804;9.220;2023-07-30T07:09:00;3.40;;;2.88;;
12441;SDS011;6285;48.804;9.220;2023-07-30T07:11:27;2.50;;;2.30;;
12441;SDS011;6285;48.804;9.220;2023-07-30T07:13:55;3.22;;;2.47;;
12441;SDS011;6285;48.804;9.220;2023-07-30T07:16:22;3.47;;;2.53;;
12441;SDS011;6285;48.804;9.220;2023-07-30T07:18:49;4.03;;;2.42;;
12441;SDS011;6285;48.804;9.220;2023-07-30T07:21:16;2.72;;;2.22;;
12441;SDS011;6285;48.804;9.220;2023-07-30T07:23:46;3.05;;;2.30;;
12441;SDS011;6285;48.804;9.220;2023-07-30T07:26:16;3.20;;;1.88;;
12441;SDS011;6285;48.804;9.220;2023-07-30T07:28:43;2.08;;;1.88;;
12441;SDS011;6285;48.804;9.220;2023-07-30T07:31:10;4.07;;;2.03;;
12441;SDS011;6285;48.804;9.220;2023-07-30T07:33:37;2.70;;;2.00;;
12441;SDS011;6285;48.804;9.220;2023-07-30T07:36:05;4.05;;;2.35;;
12441;SDS011;6285;48.804;9.220;2023-07-30T07:38:32;3.47;;;2.30;;
12441;SDS011;6285;48.804;9.220;2023-07-30T07:41:01;3.40;;;2.50;;
12441;SDS011;6285;48.804;9.220;2023-07-30T07:43:28;3.83;;;2.30;;
12441;SDS011;6285;48.804;9.220;2023-07-30T07:45:55;4.25;;;2.50;;
12441;SDS011;6285;48.804;9.220;2023-07-30T07:48:25;3.42;;;2.08;;
12441;SDS011;6285;48.804;9.220;2023-07-30T07:50:52;3.88;;;2.10;;
12441;SDS011;6285;48.804;9.220;2023-07-30T07:53:19;2.60;;;1.90;;
12441;SDS011;6285;48.804;9.220;2023-07-30T07:55:46;3.22;;;1.90;;
12441;SDS011;6285;48.804;9.220;2023-07-30T07:58:15;3.05;;;1.65;;
12441;SDS011;6285;48.804;9.220;2023-07-30T08:00:42;2.67;;;1.60;;
12441;SDS011;6285;48.804;9.220;2023-07-30T08:03:09;1.83;;;1.40;;
12441;SDS011;6285;48.804;9.220;2023-07-30T08:05:36;1.67;;;1.30;;
12441;SDS011;6285;48.804;9.220;2023-07-30T08:08:03;3.40;;;1.58;;
12441;SDS011;6285;48.804;9.220;2023-07-30T08:10:31;2.35;;;1.50;;
12441;SDS011;6285;48.804;9.220;2023-07-30T08:12:58;2.63;;;1.38;;
12441;SDS011;6285;48.804;9.220;2023-07-30T08:15:27;1.60;;;1.50;;
12441;SDS011;6285;48.804;9.220;2023-07-30T08:17:56;2.38;;;1.50;;
12441;SDS011;6285;48.804;9.220;2023-07-30T08:20:23;1.80;;;1.70;;
12441;SDS011;6285;48.804;9.220;2023-07-30T08:22:50;2.97;;;1.83;;
12441;SDS011;6285;48.804;9.220;2023-07-30T08:25:17;2.10;;;1.90;;
12441;SDS011;6285;48.804;9.220;2023-07-30T08:27:44;2.25;;;1.88;;
12441;SDS011;6285;48.804;9.220;2023-07-30T08:30:12;1.67;;;1.50;;
12441;SDS011;6285;48.804;9.220;2023-07-30T08:32:41;2.45;;;1.52;;
12441;SDS011;6285;48.804;9.220;2023-07-30T08:35:08;2.00;;;1.15;;
12441;SDS011;6285;48.804;9.220;2023-07-30T08:37:36;3.10;;;1.40;;
12441;SDS011;6285;48.804;9.220;2023-07-30T08:40:03;1.85;;;1.70;;
12441;SDS011;6285;48.804;9.220;2023-07-30T08:42:31;4.47;;;3.15;;
12441;SDS011;6285;48.804;9.220;2023-07-30T08:44:59;1.65;;;1.42;;
12441;SDS011;6285;48.804;9.220;2023-07-30T08:47:26;2.05;;;1.50;;
12441;SDS011;6285;48.804;9.220;2023-07-30T08:49:57;2.90;;;2.05;;
12441;SDS011;6285;48.804;9.220;2023-07-30T08:52:24;2.58;;;1.90;;
12441;SDS011;6285;48.804;9.220;2023-07-30T08:54:54;3.60;;;2.33;;
12441;SDS011;6285;48.804;9.220;2023-07-30T08:57:23;1.83;;;1.40;;
12441;SDS011;6285;48.804;9.220;2023-07-30T08:59:52;1.90;;;1.40;;
12441;SDS011;6285;48.804;9.220;2023-07-30T09:02:22;2.25;;;1.45;;
12441;SDS011;6285;48.804;9.220;2023-07-30T09:04:51;4.78;;;1.70;;
12441;SDS011;6285;48.804;9.220;2023-07-30T09:07:21;2.83;;;2.45;;
12441;SDS011;6285;48.804;9.220;2023-07-30T09:09:49;2.03;;;1.60;;
12441;SDS011;6285;48.804;9.220;2023-07-30T09:12:16;2.70;;;1.83;;
12441;SDS011;6285;48.804;9.220;2023-07-30T09:14:44;2.90;;;1.60;;
12441;SDS011;6285;48.804;9.220;2023-07-30T09:17:11;1.90;;;1.65;;
12441;SDS011;6285;48.804;9.220;2023-07-30T09:19:43;1.80;;;1.48;;
12441;SDS011;6285;48.804;9.220;2023-07-30T09:22:12;1.60;;;1.50;;
12441;SDS011;6285;48.804;9.220;2023-07-30T09:24:42;3.00;;;1.60;;
12441;SDS011;6285;48.804;9.220;2023-07-30T09:27:10;1.90;;;1.70;;
12441;SDS011;6285;48.804;9.220;2023-07-30T09:29:37;2.53;;;1.77;;
12441;SDS011;6285;48.804;9.220;2023-07-30T09:32:05;2.03;;;1.58;;
12441;SDS011;6285;48.804;9.220;2023-07-30T09:34:34;3.28;;;1.63;;
12441;SDS011;6285;48.804;9.220;2023-07-30T09:37:01;2.15;;;1.77;;
12441;SDS011;6285;48.804;9.220;2023-07-30T09:39:28;1.60;;;1.40;;
12441;SDS011;6285;48.804;9.220;2023-07-30T09:42:00;2.95;;;1.70;;
12441;SDS011;6285;48.804;9.220;2023-07-30T09:44:27;2.15;;;1.88;;
12441;SDS011;6285;48.804;9.220;2023-07-30T09:46:55;3.03;;;1.67;;
12441;SDS011;6285;48.804;9.220;2023-07-30T09:49:22;2.70;;;1.63;;
12441;SDS011;6285;48.804;9.220;2023-07-30T09:51:49;2.15;;;1.67;;
12441;SDS011;6285;48.804;9.220;2023-07-30T09:54:17;2.15;;;1.77;;
12441;SDS011;6285;48.804;9.220;2023-07-30T09:56:46;2.78;;;2.10;;
12441;SDS011;6285;48.804;9.220;2023-07-30T09:59:14;2.10;;;1.88;;
12441;SDS011;6285;48.804;9.220;2023-07-30T10:01:43;1.98;;;1.77;;
12441;SDS011;6285;48.804;9.220;2023-07-30T10:04:10;2.45;;;1.88;;
12441;SDS011;6285;48.804;9.220;2023-07-30T10:06:39;2.20;;;2.00;;
12441;SDS011;6285;48.804;9.220;2023-07-30T10:09:07;3.08;;;1.80;;
12441;SDS011;6285;48.804;9.220;2023-07-30T10:11:36;2.78;;;1.60;;
12441;SDS011;6285;48.804;9.220;2023-07-30T10:14:07;2.38;;;1.60;;
12441;SDS011;6285;48.804;9.220;2023-07-30T10:16:36;2.78;;;1.75;;
12441;SDS011;6285;48.804;9.220;2023-07-30T10:19:03;2.88;;;1.67;;
12441;SDS011;6285;48.804;9.220;2023-07-30T10:21:32;2.30;;;1.90;;
12441;SDS011;6285;48.804;9.220;2023-07-30T10:24:00;1.63;;;1.52;;
12441;SDS011;6285;48.804;9.220;2023-07-30T10:26:27;3.55;;;2.30;;
12441;SDS011;6285;48.804;9.220;2023-07-30T10:29:11;3.83;;;2.10;;
12441;SDS011;6285;48.804;9.220;2023-07-30T10:31:40;2.85;;;2.33;;
12441;SDS011;6285;48.804;9.220;2023-07-30T10:34:07;2.55;;;2.20;;
12441;SDS011;6285;48.804;9.220;2023-07-30T10:36:37;4.38;;;2.92;;
12441;SDS011;6285;48.804;9.220;2023-07-30T10:39:11;2.67;;;2.20;;
12441;SDS011;6285;48.804;9.220;2023-07-30T10:41:38;2.53;;;2.08;;
12441;SDS011;6285;48.804;9.220;2023-07-30T10:44:05;2.13;;;1.80;;
12441;SDS011;6285;48.804;9.220;2023-07-30T10:46:32;2.58;;;1.83;;
12441;SDS011;6285;48.804;9.220;2023-07-30T10:49:03;2.28;;;1.98;;
12441;SDS011;6285;48.804;9.220;2023-07-30T10:51:31;3.05;;;2.38;;
12441;SDS011;6285;48.804;9.220;2023-07-30T10:53:58;3.35;;;2.30;;
12441;SDS011;6285;48.804;9.220;2023-07-30T10:56:26;4.32;;;2.70;;
12441;SDS011;6285;48.804;9.220;2023-07-30T10:58:53;4.28;;;2.22;;
12441;SDS011;6285;48.804;9.220;2023-07-30T11:01:23;3.25;;;1.80;;
12441;SDS011;6285;48.804;9.220;2023-07-30T11:03:51;3.25;;;2.58;;
12441;SDS011;6285;48.804;9.220;2023-07-30T11:06:23;2.35;;;2.03;;
12441;SDS011;6285;48.804;9.220;2023-07-30T11:08:50;3.03;;;1.80;;
12441;SDS011;6285;48.804;9.220;2023-07-30T11:11:17;3.03;;;1.95;;
12441;SDS011;6285;48.804;9.220;2023-07-30T11:13:44;3.33;;;2.30;;
12441;SDS011;6285;48.804;9.220;2023-07-30T11:16:12;3.63;;;2.10;;
12441;SDS011;6285;48.804;9.220;2023-07-30T11:18:40;4.10;;;2.70;;
12441;SDS011;6285;48.804;9.220;2023-07-30T11:21:08;3.22;;;2.92;;
12441;SDS011;6285;48.804;9.220;2023-07-30T11:23:37;3.60;;;3.05;;
12441;SDS011;6285;48.804;9.220;2023-07-30T11:26:05;2.35;;;1.88;;
12441;SDS011;6285;48.804;9.220;2023-07-30T11:28:32;1.70;;;1.60;;
12441;SDS011;6285;48.804;9.220;2023-07-30T11:31:00;2.33;;;1.70;;
12441;SDS011;6285;48.804;9.220;2023-07-30T11:33:28;4.22;;;2.83;;
12441;SDS011;6285;48.804;9.220;2023-07-30T11:35:55;3.38;;;2.50;;
12441;SDS011;6285;48.804;9.220;2023-07-30T11:38:22;5.28;;;3.10;;
12441;SDS011;6285;48.804;9.220;2023-07-30T11:40:51;4.35;;;2.35;;
12441;SDS011;6285;48.804;9.220;2023-07-30T11:43:18;2.78;;;2.55;;
12441;SDS011;6285;48.804;9.220;2023-07-30T11:45:46;2.15;;;1.67;;
12441;SDS011;6285;48.804;9.220;2023-07-30T11:48:13;3.15;;;2.10;;
12441;SDS011;6285;48.804;9.220;2023-07-30T11:50:46;4.18;;;3.13;;
12441;SDS011;6285;48.804;9.220;2023-07-30T11:53:14;5.15;;;3.05;;
12441;SDS011;6285;48.804;9.220;2023-07-30T11:55:41;4.20;;;2.50;;
12441;SDS011;6285;48.804;9.220;2023-07-30T11:58:11;3.10;;;2.20;;
12441;SDS011;6285;48.804;9.220;2023-07-30T12:00:39;3.55;;;2.35;;
12441;SDS011;6285;48.804;9.220;2023-07-30T12:03:06;4.15;;;2.35;;
12441;SDS011;6285;48.804;9.220;2023-07-30T12:05:34;2.13;;;1.90;;
12441;SDS011;6285;48.804;9.220;2023-07-30T12:08:01;2.60;;;1.70;;
12441;SDS011;6285;48.804;9.220;2023-07-30T12:10:40;2.78;;;1.80;;
12441;SDS011;6285;48.804;9.220;2023-07-30T12:13:12;2.60;;;1.70;;
12441;SDS011;6285;48.804;9.220;2023-07-30T12:15:39;4.75;;;2.55;;
12441;SDS011;6285;48.804;9.220;2023-07-30T12:18:10;2.53;;;2.13;;
12441;SDS011;6285;48.804;9.220;2023-07-30T12:20:37;2.95;;;1.90;;
12441;SDS011;6285;48.804;9.220;2023-07-30T12:23:04;3.08;;;2.15;;
12441;SDS011;6285;48.804;9.220;2023-07-30T12:25:31;2.47;;;1.88;;
12441;SDS011;6285;48.804;9.220;2023-07-30T12:27:58;4.30;;;2.13;;
12441;SDS011;6285;48.804;9.220;2023-07-30T12:30:26;2.40;;;1.98;;
12441;SDS011;6285;48.804;9.220;2023-07-30T12:32:53;3.63;;;2.10;;
12441;SDS011;6285;48.804;9.220;2023-07-30T12:35:20;3.00;;;2.28;;
12441;SDS011;6285;48.804;9.220;2023-07-30T12:37:47;4.20;;;1.90;;
12441;SDS011;6285;48.804;9.220;2023-07-30T12:40:14;1.77;;;1.60;;
12441;SDS011;6285;48.804;9.220;2023-07-30T12:42:41;4.03;;;1.95;;
12441;SDS011;6285;48.804;9.220;2023-07-30T12:45:09;3.70;;;1.98;;
12441;SDS011;6285;48.804;9.220;2023-07-30T12:47:37;2.00;;;1.80;;
12441;SDS011;6285;48.804;9.220;2023-07-30T15:33:51;5.82;;;2.58;;
12441;SDS011;6285;48.804;9.220;2023-07-30T20:46:08;3.80;;;2.08;;
12441;SDS011;6285;48.804;9.220;2023-07-30T20:48:36;4.15;;;2.20;;
12441;SDS011;6285;48.804;9.220;2023-07-30T20:51:03;2.40;;;1.83;;
12441;SDS011;6285;48.804;9.220;2023-07-30T20:53:30;5.18;;;2.03;;
12441;SDS011;6285;48.804;9.220;2023-07-30T20:55:57;6.70;;;2.40;;
12441;SDS011;6285;48.804;9.220;2023-07-30T20:58:24;5.30;;;2.20;;
12441;SDS011;6285;48.804;9.220;2023-07-30T21:00:52;3.53;;;1.70;;
12441;SDS011;6285;48.804;9.220;2023-07-30T21:03:20;4.65;;;2.13;;
12441;SDS011;6285;48.804;9.220;2023-07-30T21:05:47;3.72;;;2.20;;
12441;SDS011;6285;48.804;9.220;2023-07-30T21:08:14;3.55;;;2.50;;
12441;SDS011;6285;48.804;9.220;2023-07-30T21:10:41;6.05;;;2.50;;
12441;SDS011;6285;48.804;9.220;2023-07-30T21:13:09;3.60;;;2.10;;
12441;SDS011;6285;48.804;9.220;2023-07-30T21:15:36;4.75;;;2.40;;
12441;SDS011;6285;48.804;9.220;2023-07-30T21:18:03;4.88;;;2.45;;
12441;SDS011;6285;48.804;9.220;2023-07-30T21:20:31;4.22;;;2.95;;
12441;SDS011;6285;48.804;9.220;2023-07-30T21:22:58;5.72;;;3.60;;
12441;SDS011;6285;48.804;9.220;2023-07-30T21:25:25;3.35;;;2.72;;
12441;SDS011;6285;48.804;9.220;2023-07-30T21:27:52;5.70;;;3.22;;
12441;SDS011;6285;48.804;9.220;2023-07-30T21:30:19;5.72;;;3.95;;
12441;SDS011;6285;48.804;9.220;2023-07-30T21:32:47;6.75;;;3.97;;
12441;SDS011;6285;48.804;9.220;2023-07-30T21:35:14;7.43;;;4.03;;
12441;SDS011;6285;48.804;9.220;2023-07-30T21:37:42;6.65;;;3.03;;
12441;SDS011;6285;48.804;9.220;2023-07-30T21:40:10;5.25;;;2.78;;
12441;SDS011;6285;48.804;9.220;2023-07-30T21:42:37;5.43;;;2.53;;
12441;SDS011;6285;48.804;9.220;2023-07-30T21:45:04;3.60;;;2.35;;
12441;SDS011;6285;48.804;9.220;2023-07-30T21:47:32;5.60;;;2.58;;
12441;SDS011;6285;48.804;9.220;2023-07-30T21:49:59;4.80;;;2.55;;
12441;SDS011;6285;48.804;9.220;2023-07-30T21:52:28;7.20;;;2.45;;
12441;SDS011;6285;48.804;9.220;2023-07-30T21:54:57;5.35;;;2.60;;
12441;SDS011;6285;48.804;9.220;2023-07-30T21:57:24;4.55;;;2.50;;
12441;SDS011;6285;48.804;9.220;2023-07-30T21:59:51;4.95;;;2.28;;
12441;SDS011;6285;48.804;9.220;2023-07-30T22:02:19;3.95;;;2.00;;
12441;SDS011;6285;48.804;9.220;2023-07-30T22:04:48;3.35;;;1.95;;
12441;SDS011;6285;48.804;9.220;2023-07-30T22:07:15;5.20;;;2.38;;
12441;SDS011;6285;48.804;9.220;2023-07-30T22:09:42;7.40;;;2.25;;
12441;SDS011;6285;48.804;9.220;2023-07-30T22:12:11;6.20;;;2.30;;
12441;SDS011;6285;48.804;9.220;2023-07-30T22:14:38;5.20;;;2.00;;
12441;SDS011;6285;48.804;9.220;2023-07-30T22:17:05;4.20;;;2.05;;
12441;SDS011;6285;48.804;9.220;2023-07-30T22:19:32;2.72;;;1.98;;
12441;SDS011;6285;48.804;9.220;2023-07-30T22:21:59;2.83;;;2.08;;
12441;SDS011;6285;48.804;9.220;2023-07-30T22:24:26;5.88;;;2.17;;
12441;SDS011;6285;48.804;9.220;2023-07-30T22:26:53;5.35;;;2.63;;
12441;SDS011;6285;48.804;9.220;2023-07-30T22:29:22;4.90;;;2.30;;
12441;SDS011;6285;48.804;9.220;2023-07-30T22:31:49;4.18;;;2.50;;
12441;SDS011;6285;48.804;9.220;2023-07-30T22:34:16;4.85;;;2.08;;
12441;SDS011;6285;48.804;9.220;2023-07-30T22:36:43;4.78;;;2.05;;
12441;SDS011;6285;48.804;9.220;2023-07-30T22:39:10;4.90;;;2.50;;
12441;SDS011;6285;48.804;9.220;2023-07-30T22:41:37;3.92;;;2.30;;
12441;SDS011;6285;48.804;9.220;2023-07-30T22:44:04;4.65;;;2.17;;
12441;SDS011;6285;48.804;9.220;2023-07-30T22:46:33;3.35;;;2.40;;
12441;SDS011;6285;48.804;9.220;2023-07-30T22:49:00;7.32;;;2.17;;
12441;SDS011;6285;48.804;9.220;2023-07-30T22:51:27;4.40;;;2.40;;
12441;SDS011;6285;48.804;9.220;2023-07-30T22:53:54;3.55;;;2.05;;
12441;SDS011;6285;48.804;9.220;2023-07-30T22:56:21;3.70;;;1.90;;